Time;durP1;ratioP1;P1;durP2;ratioP2;P2;SDS_P1;SDS_P2;PMS_P1;PMS_P2;Temp;Humidity;BMP_temperature;BMP_pressure;BME280_temperature;BME280_humidity;BME280_pressure;Samples;Min_cycle;Max_cycle;Signal;HPM_P1;HPM_P2
2021/07/10 00:00:16;;;;;;;;;;;;;;;13.98;100.00;96422.84;1053828;28;19958;-70
2021/07/10 00:00:47;;;;;;;;;;;;;;;13.98;100.00;96414.78;1053739;28;20420;-70
2021/07/10 00:01:17;;;;;;;;;;;;;;;13.99;100.00;96419.06;1053809;28;19908;-71
2021/07/10 00:01:47;;;;;;;;;;;;;;;13.99;100.00;96409.09;1053724;28;19916;-70
2021/07/10 00:02:17;;;;;;;;;;;;;;;13.99;100.00;96414.47;1053845;28;19938;-70
2021/07/10 00:02:48;;;;;;;;;;;;;;;13.98;100.00;96418.25;1053615;28;19978;-70
2021/07/10 00:03:18;;;;;;;;;;;;;;;13.98;100.00;96426.31;1053713;28;19912;-70
2021/07/10 00:03:48;;;;;;;;;;;;;;;13.98;100.00;96417.47;1053676;28;19919;-70
2021/07/10 00:04:19;;;;;;;;;;;;;;;13.93;100.00;96412.94;1053818;28;19912;-70
2021/07/10 00:04:49;;;;;;;;;;;;;;;13.91;100.00;96415.06;1053733;28;20345;-70
2021/07/10 00:05:19;;;;;;;;;;;;;;;13.92;100.00;96415.88;1053266;28;19919;-71
2021/07/10 00:05:49;;;;;;;;;;;;;;;13.92;100.00;96414.00;1049205;28;20301;-70
2021/07/10 00:06:20;;;;;;;;;;;;;;;13.89;100.00;96419.94;1049389;28;19950;-70
2021/07/10 00:06:50;;;;;;;;;;;;;;;13.88;100.00;96422.91;1045085;28;20232;-70
2021/07/10 00:07:20;;;;;;;;;;;;;;;13.91;100.00;96419.66;1045104;28;20007;-70
2021/07/10 00:07:51;;;;;;;;;;;;;;;13.91;100.00;96423.13;1049222;28;19919;-70
2021/07/10 00:08:21;;;;;;;;;;;;;;;13.90;100.00;96421.53;1049361;28;19912;-70
2021/07/10 00:08:51;;;;;;;;;;;;;;;13.89;100.00;96414.56;1053746;28;19952;-70
2021/07/10 00:09:21;;;;;;;;;;;;;;;13.91;100.00;96428.50;1053713;28;19912;-70
2021/07/10 00:09:52;;;;;;;;;;;;;;;13.89;100.00;96414.56;1053676;28;19912;-71
2021/07/10 00:10:22;;;;;;;;;;;;;;;13.89;100.00;96424.50;1049189;28;20377;-70
2021/07/10 00:10:52;;;;;;;;;;;;;;;13.86;100.00;96425.06;1049227;28;20334;-70
2021/07/10 00:11:23;;;;;;;;;;;;;;;13.85;100.00;96421.56;1049322;28;19920;-70
2021/07/10 00:11:53;;;;;;;;;;;;;;;13.83;100.00;96417.56;1049295;28;20005;-70
2021/07/10 00:12:23;;;;;;;;;;;;;;;13.84;100.00;96416.50;1053606;28;19919;-70
2021/07/10 00:12:53;;;;;;;;;;;;;;;13.86;100.00;96425.06;1053740;28;19912;-70
2021/07/10 00:13:24;;;;;;;;;;;;;;;13.85;100.00;96421.56;1053776;28;19916;-70
2021/07/10 00:13:54;;;;;;;;;;;;;;;13.86;100.00;96414.31;1053770;28;20288;-70
2021/07/10 00:14:24;;;;;;;;;;;;;;;13.86;100.00;96417.78;1053717;28;20388;-71
2021/07/10 00:14:55;;;;;;;;;;;;;;;13.87;100.00;96407.84;1049266;28;19970;-70
2021/07/10 00:15:25;;;;;;;;;;;;;;;13.89;100.00;96411.88;1048965;28;20390;-71
2021/07/10 00:15:55;;;;;;;;;;;;;;;13.90;100.00;96410.78;1049172;28;19966;-70
2021/07/10 00:16:26;;;;;;;;;;;;;;;13.90;100.00;96413.47;1049267;28;19916;-70
2021/07/10 00:16:56;;;;;;;;;;;;;;;13.88;100.00;96409.47;1053706;28;19912;-70
2021/07/10 00:17:26;;;;;;;;;;;;;;;13.88;100.00;96402.22;1053712;28;19955;-71
2021/07/10 00:17:57;;;;;;;;;;;;;;;13.87;100.00;96406.00;1053730;28;19919;-70
2021/07/10 00:18:27;;;;;;;;;;;;;;;13.85;100.00;96408.13;1053693;28;20287;-70
2021/07/10 00:18:57;;;;;;;;;;;;;;;13.85;100.00;96407.34;1053616;28;19993;-70
2021/07/10 00:19:27;;;;;;;;;;;;;;;13.83;100.00;96404.94;1053730;28;19916;-70
2021/07/10 00:19:58;;;;;;;;;;;;;;;13.86;100.00;96406.25;1053735;28;19919;-70
2021/07/10 00:20:28;;;;;;;;;;;;;;;13.83;100.00;96404.94;1053591;28;19916;-71
2021/07/10 00:20:58;;;;;;;;;;;;;;;13.83;100.00;96404.16;1053761;28;19908;-70
2021/07/10 00:21:28;;;;;;;;;;;;;;;13.85;100.00;96410.81;1053595;28;20310;-70
2021/07/10 00:21:59;;;;;;;;;;;;;;;13.84;100.00;96403.06;1053472;28;19912;-70
2021/07/10 00:22:29;;;;;;;;;;;;;;;13.84;100.00;96405.75;1053682;28;19912;-70
2021/07/10 00:23:01;;;;;;;;;;;;;;;13.82;100.00;96400.66;1053727;28;19948;-70
2021/07/10 00:23:32;;;;;;;;;;;;;;;13.84;100.00;96405.75;1053724;28;19922;-70
2021/07/10 00:24:02;;;;;;;;;;;;;;;13.80;100.00;96402.81;1053728;28;19961;-70
2021/07/10 00:24:33;;;;;;;;;;;;;;;13.79;100.00;96399.31;1053681;28;20030;-70
2021/07/10 00:25:07;;;;;;;;;;;;;;;13.81;100.00;96401.72;1053693;28;20356;-70
2021/07/10 00:25:37;;;;;;;;;;;;;;;13.83;100.00;96399.56;1053322;28;19916;-70
2021/07/10 00:26:07;;;;;;;;;;;;;;;13.85;100.00;96404.66;1054411;28;19960;-70
2021/07/10 00:26:38;;;;;;;;;;;;;;;13.83;100.00;96398.78;1054465;28;19947;-70
2021/07/10 00:27:08;;;;;;;;;;;;;;;13.84;100.00;96398.47;1054316;28;19912;-70
2021/07/10 00:27:38;;;;;;;;;;;;;;;13.86;100.00;96401.69;1054420;28;19966;-70
2021/07/10 00:28:09;;;;;;;;;;;;;;;13.87;100.00;96400.63;1055213;28;19908;-70
2021/07/10 00:28:39;;;;;;;;;;;;;;;13.84;100.00;96397.69;1053331;28;19916;-70
2021/07/10 00:29:09;;;;;;;;;;;;;;;13.82;100.00;96400.66;1053540;28;20470;-70
2021/07/10 00:29:40;;;;;;;;;;;;;;;13.79;100.00;96407.38;1053640;28;20365;-70
2021/07/10 00:30:10;;;;;;;;;;;;;;;13.78;100.00;96404.97;1053642;28;20380;-70
2021/07/10 00:30:40;;;;;;;;;;;;;;;13.81;100.00;96400.91;1053593;28;19912;-70
2021/07/10 00:31:11;;;;;;;;;;;;;;;13.81;100.00;96400.91;1053721;28;19957;-70
2021/07/10 00:31:41;;;;;;;;;;;;;;;13.80;100.00;96397.44;1053677;28;19923;-70
2021/07/10 00:32:11;;;;;;;;;;;;;;;13.80;100.00;96400.13;1053720;28;20471;-70
2021/07/10 00:32:41;;;;;;;;;;;;;;;13.82;100.00;96405.19;1053602;28;19923;-71
2021/07/10 00:33:12;;;;;;;;;;;;;;;13.83;100.00;96393.41;1053615;28;19992;-70
2021/07/10 00:33:42;;;;;;;;;;;;;;;13.82;100.00;96395.28;1053626;28;19912;-70
2021/07/10 00:34:12;;;;;;;;;;;;;;;13.82;100.00;96402.50;1053656;28;19906;-70
2021/07/10 00:34:43;;;;;;;;;;;;;;;13.80;100.00;96394.75;1053640;28;19908;-70
2021/07/10 00:35:13;;;;;;;;;;;;;;;13.82;100.00;96387.22;1052994;28;20333;-70
2021/07/10 00:35:43;;;;;;;;;;;;;;;13.83;100.00;96396.09;1053028;28;19958;-70
2021/07/10 00:36:14;;;;;;;;;;;;;;;13.82;100.00;96397.16;1053464;28;20411;-70
2021/07/10 00:36:44;;;;;;;;;;;;;;;13.82;100.00;96394.47;1053706;28;19916;-70
2021/07/10 00:37:14;;;;;;;;;;;;;;;13.81;100.00;96393.66;1053639;28;19993;-70
2021/07/10 00:37:44;;;;;;;;;;;;;;;13.79;100.00;96396.63;1053649;28;20292;-70
2021/07/10 00:38:15;;;;;;;;;;;;;;;13.74;100.00;96393.97;1053663;28;20242;-70
2021/07/10 00:38:45;;;;;;;;;;;;;;;13.75;100.00;96386.72;1053728;28;20364;-70
2021/07/10 00:39:15;;;;;;;;;;;;;;;13.76;100.00;96389.13;1053559;28;19904;-70
2021/07/10 00:39:46;;;;;;;;;;;;;;;13.76;100.00;96391.81;1053684;28;19904;-70
2021/07/10 00:40:16;;;;;;;;;;;;;;;13.74;100.00;96391.28;1053434;28;19904;-70
2021/07/10 00:40:47;;;;;;;;;;;;;;;13.73;100.00;96391.59;1049113;28;20277;-70
2021/07/10 00:41:17;;;;;;;;;;;;;;;13.72;100.00;96382.72;1049060;28;19929;-70
2021/07/10 00:41:48;;;;;;;;;;;;;;;13.72;100.00;96381.94;1049199;28;19964;-70
2021/07/10 00:42:21;;;;;;;;;;;;;;;13.72;100.00;96382.72;1049072;28;20380;-70
2021/07/10 00:42:52;;;;;;;;;;;;;;;13.72;100.00;96387.31;1053598;28;19915;-70
2021/07/10 00:43:22;;;;;;;;;;;;;;;13.69;100.00;96383.28;1053579;28;19935;-70
2021/07/10 00:43:52;;;;;;;;;;;;;;;13.69;100.00;96385.16;1049171;28;19915;-70
2021/07/10 00:44:22;;;;;;;;;;;;;;;13.65;100.00;96386.78;1049118;28;19951;-70
2021/07/10 00:44:53;;;;;;;;;;;;;;;13.68;100.00;96381.69;1048426;28;19924;-70
2021/07/10 00:45:23;;;;;;;;;;;;;;;13.69;100.00;96382.47;1049139;28;20373;-70
2021/07/10 00:45:53;;;;;;;;;;;;;;;13.68;100.00;96375.50;1053612;28;20376;-70
2021/07/10 00:46:24;;;;;;;;;;;;;;;13.70;100.00;96384.88;1053672;28;19916;-70
2021/07/10 00:46:54;;;;;;;;;;;;;;;13.69;100.00;96385.16;1053617;28;19985;-70
2021/07/10 00:47:24;;;;;;;;;;;;;;;13.69;100.00;96379.78;1053561;28;19911;-69
2021/07/10 00:47:54;;;;;;;;;;;;;;;13.70;100.00;96382.19;1053606;28;19908;-70
2021/07/10 00:48:25;;;;;;;;;;;;;;;13.70;100.00;96376.81;1053564;28;20331;-69
2021/07/10 00:48:55;;;;;;;;;;;;;;;13.70;100.00;96382.19;1053612;28;19915;-70
2021/07/10 00:49:25;;;;;;;;;;;;;;;13.67;100.00;96385.44;1053599;28;19943;-70
2021/07/10 00:49:55;;;;;;;;;;;;;;;13.69;100.00;96382.47;1053520;28;19915;-69
2021/07/10 00:50:26;;;;;;;;;;;;;;;13.69;100.00;96385.97;1053618;28;19904;-69
2021/07/10 00:50:56;;;;;;;;;;;;;;;13.67;100.00;96390.81;1053628;28;20285;-69
2021/07/10 00:51:26;;;;;;;;;;;;;;;13.64;100.00;96382.50;1053518;28;19923;-69
2021/07/10 00:51:57;;;;;;;;;;;;;;;13.65;100.00;96387.59;1053479;28;20320;-69
2021/07/10 00:52:27;;;;;;;;;;;;;;;13.67;100.00;96392.72;1053558;28;19904;-69
2021/07/10 00:52:57;;;;;;;;;;;;;;;13.67;100.00;96381.97;1053595;28;19908;-69
2021/07/10 00:53:28;;;;;;;;;;;;;;;13.68;100.00;96383.56;1053592;28;20326;-69
2021/07/10 00:53:59;;;;;;;;;;;;;;;13.67;100.00;96379.28;1053545;28;19908;-69
2021/07/10 00:54:29;;;;;;;;;;;;;;;13.64;100.00;96377.94;1053548;28;20369;-69
2021/07/10 00:54:59;;;;;;;;;;;;;;;13.64;100.00;96377.94;1049122;28;19908;-69
2021/07/10 00:55:29;;;;;;;;;;;;;;;13.64;100.00;96382.50;1049078;28;19905;-69
2021/07/10 00:56:00;;;;;;;;;;;;;;;13.63;100.00;96373.66;1044834;28;20007;-69
2021/07/10 00:56:30;;;;;;;;;;;;;;;13.61;100.00;96375.00;1040863;28;19920;-69
2021/07/10 00:57:00;;;;;;;;;;;;;;;13.61;100.00;96381.16;1044981;28;19923;-69
2021/07/10 00:57:31;;;;;;;;;;;;;;;13.62;100.00;96377.44;1040831;28;19914;-69
2021/07/10 00:58:01;;;;;;;;;;;;;;;13.60;100.00;96371.53;1044948;28;19924;-69
2021/07/10 00:58:33;;;;;;;;;;;;;;;13.59;100.00;96375.28;1049134;28;20296;-69
2021/07/10 00:59:03;;;;;;;;;;;;;;;13.62;100.00;96376.63;1049410;28;19975;-69
2021/07/10 00:59:33;;;;;;;;;;;;;;;13.58;100.00;96379.06;1048878;28;20337;-69
2021/07/10 01:00:04;;;;;;;;;;;;;;;13.56;100.00;96377.72;1048941;28;19913;-69
2021/07/10 01:00:35;;;;;;;;;;;;;;;13.58;100.00;96378.25;1049099;28;19920;-69
2021/07/10 01:01:05;;;;;;;;;;;;;;;13.58;100.00;96379.06;1049169;28;20377;-69
2021/07/10 01:01:35;;;;;;;;;;;;;;;13.57;100.00;96376.66;1053583;28;20296;-70
2021/07/10 01:02:05;;;;;;;;;;;;;;;13.58;100.00;96375.59;1049044;28;19912;-69
2021/07/10 01:02:36;;;;;;;;;;;;;;;13.59;100.00;96379.88;1049120;28;19916;-69
2021/07/10 01:03:07;;;;;;;;;;;;;;;13.59;100.00;96383.34;1044891;28;19909;-69
2021/07/10 01:03:40;;;;;;;;;;;;;;;13.59;100.00;96377.97;1045110;28;19913;-69
2021/07/10 01:04:10;;;;;;;;;;;;;;;13.58;100.00;96371.00;1044915;28;20337;-69
2021/07/10 01:04:41;;;;;;;;;;;;;;;13.59;100.00;96367.22;1045379;28;19959;-69
2021/07/10 01:05:12;;;;;;;;;;;;;;;13.60;100.00;96371.53;1048993;28;19908;-69
2021/07/10 01:05:42;;;;;;;;;;;;;;;13.61;100.00;96366.94;1049727;28;19999;-69
2021/07/10 01:06:13;;;;;;;;;;;;;;;13.58;100.00;96365.63;1053507;28;19968;-69
2021/07/10 01:06:43;;;;;;;;;;;;;;;13.59;100.00;96377.19;1053556;28;19916;-69
2021/07/10 01:07:13;;;;;;;;;;;;;;;13.59;100.00;96366.44;1049086;28;19962;-70
2021/07/10 01:07:44;;;;;;;;;;;;;;;13.61;100.00;96369.63;1049093;28;19927;-69
2021/07/10 01:08:14;;;;;;;;;;;;;;;13.57;100.00;96361.34;1048947;28;20426;-69
2021/07/10 01:08:48;;;;;;;;;;;;;;;13.56;100.00;96362.41;1049051;28;19951;-70
2021/07/10 01:09:18;;;;;;;;;;;;;;;13.53;100.00;96358.41;1053564;28;19977;-69
2021/07/10 01:09:48;;;;;;;;;;;;;;;13.53;100.00;96363.78;1053511;28;19916;-69
2021/07/10 01:10:19;;;;;;;;;;;;;;;13.56;100.00;96359.72;1053463;28;19958;-69
2021/07/10 01:10:49;;;;;;;;;;;;;;;13.57;100.00;96357.88;1053410;28;20312;-69
2021/07/10 01:11:19;;;;;;;;;;;;;;;13.56;100.00;96369.66;1044814;28;20055;-69
2021/07/10 01:11:50;;;;;;;;;;;;;;;13.57;100.00;96363.25;1040815;28;19917;-69
2021/07/10 01:12:20;;;;;;;;;;;;;;;13.54;100.00;96359.22;1040735;28;20416;-69
2021/07/10 01:12:51;;;;;;;;;;;;;;;13.55;100.00;96357.31;1040779;28;19964;-69
2021/07/10 01:13:21;;;;;;;;;;;;;;;13.55;100.00;96358.13;1049101;28;20270;-69
2021/07/10 01:13:51;;;;;;;;;;;;;;;13.53;100.00;96352.25;1053522;28;19920;-70
2021/07/10 01:14:22;;;;;;;;;;;;;;;13.53;100.00;96368.34;1049101;28;19919;-69
2021/07/10 01:14:52;;;;;;;;;;;;;;;13.53;100.00;96363.00;1044799;28;20377;-69
2021/07/10 01:15:23;;;;;;;;;;;;;;;13.50;100.00;96356.28;1040791;28;19948;-70
2021/07/10 01:15:53;;;;;;;;;;;;;;;13.51;100.00;96363.28;1040732;28;20031;-69
2021/07/10 01:16:23;;;;;;;;;;;;;;;13.50;100.00;96356.28;1045013;28;20010;-69
2021/07/10 01:16:53;;;;;;;;;;;;;;;13.50;100.00;96364.34;1049142;28;20390;-69
2021/07/10 01:17:24;;;;;;;;;;;;;;;13.50;100.00;96363.53;1053491;28;19947;-69
2021/07/10 01:17:57;;;;;;;;;;;;;;;13.50;100.00;96364.34;1053522;28;19923;-69
2021/07/10 01:18:27;;;;;;;;;;;;;;;13.52;100.00;96366.75;1053478;28;19916;-69
2021/07/10 01:18:57;;;;;;;;;;;;;;;13.51;100.00;96357.06;1053373;28;19922;-70
2021/07/10 01:19:28;;;;;;;;;;;;;;;13.50;100.00;96356.28;1053547;28;19917;-69
2021/07/10 01:19:58;;;;;;;;;;;;;;;13.50;100.00;96367.03;1053486;28;19959;-69
2021/07/10 01:20:29;;;;;;;;;;;;;;;13.51;100.00;96367.81;1053413;28;20436;-70
2021/07/10 01:21:00;;;;;;;;;;;;;;;13.51;100.00;96359.75;1053410;28;19969;-70
2021/07/10 01:21:30;;;;;;;;;;;;;;;13.49;100.00;96370.78;1053472;28;19962;-69
2021/07/10 01:22:00;;;;;;;;;;;;;;;13.49;100.00;96365.41;1053470;28;19916;-70
2021/07/10 01:22:32;;;;;;;;;;;;;;;13.46;100.00;96367.84;1053485;28;19943;-70
2021/07/10 01:23:02;;;;;;;;;;;;;;;13.46;100.00;96362.47;1048924;28;20359;-70
2021/07/10 01:23:33;;;;;;;;;;;;;;;13.47;100.00;96361.44;1048954;28;19966;-70
2021/07/10 01:24:03;;;;;;;;;;;;;;;13.45;100.00;96363.56;1044889;28;20011;-69
2021/07/10 01:24:33;;;;;;;;;;;;;;;13.47;100.00;96358.75;1044872;28;19912;-69
2021/07/10 01:25:04;;;;;;;;;;;;;;;13.45;100.00;96360.88;1048976;28;19923;-69
2021/07/10 01:25:34;;;;;;;;;;;;;;;13.44;100.00;96357.41;1049142;28;19935;-69
2021/07/10 01:26:05;;;;;;;;;;;;;;;13.46;100.00;96362.47;1053388;28;19965;-72
2021/07/10 01:26:35;;;;;;;;;;;;;;;13.45;100.00;96360.88;1053463;28;19913;-69
2021/07/10 01:27:05;;;;;;;;;;;;;;;13.41;100.00;96357.16;1053369;28;20349;-70
2021/07/10 01:27:36;;;;;;;;;;;;;;;13.38;100.00;96361.19;1053447;28;19912;-70
2021/07/10 01:28:08;;;;;;;;;;;;;;;13.36;100.00;96354.50;1053454;28;19916;-69
2021/07/10 01:28:38;;;;;;;;;;;;;;;13.33;100.00;96352.38;1053445;28;20373;-69
2021/07/10 01:29:08;;;;;;;;;;;;;;;13.32;100.00;96354.28;1053342;28;19916;-69
2021/07/10 01:29:39;;;;;;;;;;;;;;;13.33;100.00;96355.06;1053501;28;19908;-69
2021/07/10 01:30:10;;;;;;;;;;;;;;;13.34;100.00;96353.97;1048822;28;20320;-70
2021/07/10 01:30:40;;;;;;;;;;;;;;;13.30;100.00;96356.41;1048956;28;20308;-70
2021/07/10 01:31:11;;;;;;;;;;;;;;;13.31;100.00;96349.16;1048973;28;19916;-69
2021/07/10 01:31:42;;;;;;;;;;;;;;;13.29;100.00;96352.13;1049111;28;19915;-70
2021/07/10 01:32:14;;;;;;;;;;;;;;;13.26;100.00;96347.34;1053435;28;19916;-69
2021/07/10 01:32:44;;;;;;;;;;;;;;;13.26;100.00;96347.34;1053221;28;19967;-69
2021/07/10 01:33:15;;;;;;;;;;;;;;;13.20;100.00;96343.81;1053368;28;19916;-69
2021/07/10 01:33:45;;;;;;;;;;;;;;;13.13;100.00;96354.06;1053374;28;19916;-69
2021/07/10 01:34:15;;;;;;;;;;;;;;;13.06;100.00;96342.84;1053447;28;20286;-69
2021/07/10 01:34:46;;;;;;;;;;;;;;;13.04;100.00;96342.31;1053412;28;20004;-69
2021/07/10 01:35:16;;;;;;;;;;;;;;;13.06;100.00;96337.50;1053406;28;19919;-69
2021/07/10 01:35:46;;;;;;;;;;;;;;;13.04;100.00;96342.31;1053312;28;20006;-69
2021/07/10 01:36:17;;;;;;;;;;;;;;;13.03;100.00;96338.03;1053509;28;20010;-69
2021/07/10 01:36:47;;;;;;;;;;;;;;;12.99;100.00;96340.44;1053367;28;19919;-69
2021/07/10 01:37:17;;;;;;;;;;;;;;;13.01;100.00;96340.19;1053458;28;19944;-69
2021/07/10 01:37:47;;;;;;;;;;;;;;;12.98;100.00;96340.75;1052996;28;20318;-69
2021/07/10 01:38:18;;;;;;;;;;;;;;;12.94;100.00;96337.00;1050237;28;20010;-69
2021/07/10 01:38:48;;;;;;;;;;;;;;;12.94;100.00;96340.47;1049191;28;19923;-69
2021/07/10 01:39:18;;;;;;;;;;;;;;;12.97;100.00;96339.16;1049267;28;20408;-69
2021/07/10 01:39:49;;;;;;;;;;;;;;;13.00;100.00;96335.91;1049105;28;19922;-70
2021/07/10 01:40:19;;;;;;;;;;;;;;;12.99;100.00;96335.09;1049154;28;19952;-69
2021/07/10 01:40:50;;;;;;;;;;;;;;;12.97;100.00;96333.78;1049127;28;20250;-69
2021/07/10 01:41:20;;;;;;;;;;;;;;;12.95;100.00;96328.69;1049203;28;19913;-69
2021/07/10 01:41:53;;;;;;;;;;;;;;;12.92;100.00;96336.47;1049142;28;19952;-70
2021/07/10 01:42:24;;;;;;;;;;;;;;;12.97;100.00;96328.41;1049143;28;19919;-69
2021/07/10 01:42:54;;;;;;;;;;;;;;;12.97;100.00;96326.53;1044696;28;19967;-70
2021/07/10 01:43:24;;;;;;;;;;;;;;;12.95;100.00;96331.38;1044678;28;19917;-69
2021/07/10 01:43:55;;;;;;;;;;;;;;;12.95;100.00;96326.00;1044703;28;19913;-69
2021/07/10 01:44:25;;;;;;;;;;;;;;;12.97;100.00;96328.41;1040640;28;19920;-69
2021/07/10 01:44:55;;;;;;;;;;;;;;;12.98;100.00;96330.00;1040619;28;20469;-69
2021/07/10 01:45:25;;;;;;;;;;;;;;;13.01;100.00;96330.25;1044869;28;19951;-69
2021/07/10 01:45:56;;;;;;;;;;;;;;;13.01;100.00;96332.94;1044674;28;19947;-69
2021/07/10 01:46:26;;;;;;;;;;;;;;;13.01;100.00;96338.31;1048782;28;19920;-69
2021/07/10 01:46:56;;;;;;;;;;;;;;;13.03;100.00;96332.66;1048839;28;19916;-69
2021/07/10 01:47:27;;;;;;;;;;;;;;;13.07;100.00;96339.09;1048940;28;20310;-69
2021/07/10 01:47:57;;;;;;;;;;;;;;;13.08;100.00;96338.00;1048756;28;19912;-69
2021/07/10 01:48:27;;;;;;;;;;;;;;;13.09;100.00;96336.91;1051169;28;19944;-69
2021/07/10 01:48:58;;;;;;;;;;;;;;;13.06;100.00;96334.81;1053236;28;19956;-72
2021/07/10 01:49:28;;;;;;;;;;;;;;;13.07;100.00;96330.25;1048689;28;19942;-69
2021/07/10 01:49:58;;;;;;;;;;;;;;;13.06;100.00;96328.63;1048766;28;20277;-69
2021/07/10 01:50:28;;;;;;;;;;;;;;;13.07;100.00;96322.19;1048935;28;20374;-70
2021/07/10 01:50:59;;;;;;;;;;;;;;;13.08;100.00;96323.78;1048906;28;19912;-69
2021/07/10 01:51:29;;;;;;;;;;;;;;;13.10;100.00;96326.97;1053478;28;19912;-70
2021/07/10 01:51:59;;;;;;;;;;;;;;;13.10;100.00;96326.97;1053213;28;19919;-69
2021/07/10 01:52:29;;;;;;;;;;;;;;;13.09;100.00;96336.13;1053466;28;19919;-69
2021/07/10 01:53:00;;;;;;;;;;;;;;;13.07;100.00;96324.88;1053323;28;20441;-69
2021/07/10 01:53:30;;;;;;;;;;;;;;;13.07;100.00;96325.66;1053381;28;19916;-69
2021/07/10 01:54:00;;;;;;;;;;;;;;;13.08;100.00;96323.78;1053411;28;19908;-69
2021/07/10 01:54:31;;;;;;;;;;;;;;;13.09;100.00;96328.06;1053264;28;20350;-69
2021/07/10 01:55:02;;;;;;;;;;;;;;;13.07;100.00;96322.19;1053334;28;19984;-69
2021/07/10 01:55:32;;;;;;;;;;;;;;;13.09;100.00;96325.38;1053406;28;20280;-69
2021/07/10 01:56:02;;;;;;;;;;;;;;;13.07;100.00;96323.00;1053271;28;19974;-69
2021/07/10 01:56:33;;;;;;;;;;;;;;;13.08;100.00;96323.78;1048783;28;19912;-69
2021/07/10 01:57:06;;;;;;;;;;;;;;;13.05;100.00;96325.16;1048782;28;19909;-69
2021/07/10 01:57:37;;;;;;;;;;;;;;;13.04;100.00;96326.22;1048973;28;20041;-69
2021/07/10 01:58:08;;;;;;;;;;;;;;;13.01;100.00;96324.91;1049409;28;20003;-69
2021/07/10 01:58:38;;;;;;;;;;;;;;;13.00;100.00;96317.13;1052686;28;20139;-70
2021/07/10 01:59:08;;;;;;;;;;;;;;;12.97;100.00;96318.47;1053309;28;19973;-70
2021/07/10 01:59:39;;;;;;;;;;;;;;;12.98;100.00;96321.97;1053315;28;19908;-70
2021/07/10 02:00:10;;;;;;;;;;;;;;;12.97;100.00;96317.69;1053388;28;19919;-69
2021/07/10 02:00:41;;;;;;;;;;;;;;;12.99;100.00;96313.63;1053317;28;19919;-69
2021/07/10 02:01:11;;;;;;;;;;;;;;;12.96;100.00;96308.03;1053366;28;19916;-69
2021/07/10 02:01:51;;;;;;;;;;;;;;;12.98;100.00;96317.41;1053495;28;19939;-70
2021/07/10 02:02:21;;;;;;;;;;;;;;;12.98;100.00;96311.22;1049966;28;20464;-69
2021/07/10 02:02:51;;;;;;;;;;;;;;;12.95;100.00;96309.91;1049834;28;19919;-69
2021/07/10 02:03:22;;;;;;;;;;;;;;;12.95;100.00;96319.84;1050144;28;20065;-69
2021/07/10 02:03:52;;;;;;;;;;;;;;;12.96;100.00;96308.84;1050083;28;19919;-69
2021/07/10 02:04:22;;;;;;;;;;;;;;;12.95;100.00;96312.59;1054552;28;19956;-70
2021/07/10 02:04:53;;;;;;;;;;;;;;;12.96;100.00;96314.19;1054455;28;19912;-69
2021/07/10 02:05:24;;;;;;;;;;;;;;;12.88;100.00;96306.72;1054787;28;19961;-69
2021/07/10 02:05:54;;;;;;;;;;;;;;;12.90;100.00;96318.00;1049984;28;19913;-70
2021/07/10 02:06:24;;;;;;;;;;;;;;;12.91;100.00;96308.84;1050168;28;19948;-70
2021/07/10 02:06:55;;;;;;;;;;;;;;;12.86;100.00;96308.09;1049987;28;19912;-69
2021/07/10 02:07:25;;;;;;;;;;;;;;;12.83;100.00;96312.09;1045895;28;19913;-69
2021/07/10 02:07:58;;;;;;;;;;;;;;;12.82;100.00;96304.34;1050053;28;20328;-69
2021/07/10 02:08:28;;;;;;;;;;;;;;;12.80;100.00;96309.19;1046243;28;19912;-70
2021/07/10 02:08:58;;;;;;;;;;;;;;;12.81;100.00;96308.91;1047227;28;19909;-69
2021/07/10 02:09:28;;;;;;;;;;;;;;;12.80;100.00;96311.88;1050775;28;19908;-69
2021/07/10 02:09:59;;;;;;;;;;;;;;;12.81;100.00;96306.22;1051210;28;19974;-70
2021/07/10 02:10:29;;;;;;;;;;;;;;;12.82;100.00;96301.66;1055437;28;19915;-69
2021/07/10 02:11:00;;;;;;;;;;;;;;;12.83;100.00;96303.25;1050850;28;19980;-69
2021/07/10 02:11:30;;;;;;;;;;;;;;;12.83;100.00;96301.38;1050641;28;19916;-69
2021/07/10 02:12:00;;;;;;;;;;;;;;;12.84;100.00;96300.28;1050331;28;19957;-70
2021/07/10 02:12:30;;;;;;;;;;;;;;;12.83;100.00;96297.91;1046415;28;20265;-69
2021/07/10 02:13:08;;;;;;;;;;;;;;;12.84;100.00;96297.63;1050877;28;19912;-70
2021/07/10 02:13:38;;;;;;;;;;;;;;;12.83;100.00;96297.91;1046722;28;19912;-69
2021/07/10 02:14:08;;;;;;;;;;;;;;;12.84;100.00;96296.81;1047030;28;20001;-69
2021/07/10 02:14:38;;;;;;;;;;;;;;;12.85;100.00;96301.13;1048771;28;19912;-69
2021/07/10 02:15:09;;;;;;;;;;;;;;;12.85;100.00;96298.44;1048597;28;19912;-69
2021/07/10 02:15:39;;;;;;;;;;;;;;;12.87;100.00;96293.59;1053246;28;20325;-69
2021/07/10 02:16:10;;;;;;;;;;;;;;;12.86;100.00;96292.78;1053002;28;20394;-71
2021/07/10 02:16:41;;;;;;;;;;;;;;;12.86;100.00;96294.69;1053198;28;19916;-70
2021/07/10 02:17:11;;;;;;;;;;;;;;;12.86;100.00;96290.13;1053080;28;19909;-68
2021/07/10 02:17:44;;;;;;;;;;;;;;;12.83;100.00;96290.66;1053197;28;19928;-68
2021/07/10 02:18:14;;;;;;;;;;;;;;;12.84;100.00;96278.84;1048594;28;19912;-69
2021/07/10 02:18:44;;;;;;;;;;;;;;;12.83;100.00;96285.28;1048726;28;20297;-69
2021/07/10 02:19:15;;;;;;;;;;;;;;;12.80;100.00;96283.19;1048578;28;19912;-70
2021/07/10 02:19:45;;;;;;;;;;;;;;;12.82;100.00;96294.41;1049038;28;19936;-69
2021/07/10 02:20:17;;;;;;;;;;;;;;;12.83;100.00;96279.94;1053028;28;19918;-69
2021/07/10 02:20:47;;;;;;;;;;;;;;;12.83;100.00;96279.94;1053130;28;20390;-70
2021/07/10 02:21:17;;;;;;;;;;;;;;;12.83;100.00;96282.59;1053051;28;19912;-69
2021/07/10 02:21:47;;;;;;;;;;;;;;;12.85;100.00;96283.16;1053223;28;19962;-69
2021/07/10 02:22:18;;;;;;;;;;;;;;;12.85;100.00;96279.66;1053113;28;20288;-68
2021/07/10 02:22:48;;;;;;;;;;;;;;;12.84;100.00;96281.53;1053222;28;19920;-69
2021/07/10 02:23:19;;;;;;;;;;;;;;;12.85;100.00;96283.16;1052917;28;19912;-69
2021/07/10 02:23:51;;;;;;;;;;;;;;;12.86;100.00;96279.38;1053175;28;19962;-69
2021/07/10 02:24:21;;;;;;;;;;;;;;;12.83;100.00;96277.25;1053105;28;20399;-69
2021/07/10 02:24:51;;;;;;;;;;;;;;;12.84;100.00;96284.19;1053155;28;19916;-69
2021/07/10 02:25:22;;;;;;;;;;;;;;;12.83;100.00;96279.94;1053098;28;19920;-70
2021/07/10 02:25:52;;;;;;;;;;;;;;;12.83;100.00;96279.94;1053109;28;20280;-70
2021/07/10 02:26:24;;;;;;;;;;;;;;;12.79;100.00;96281.56;1053142;28;19916;-70
2021/07/10 02:26:54;;;;;;;;;;;;;;;12.82;100.00;96283.69;1053136;28;19916;-70
2021/07/10 02:27:24;;;;;;;;;;;;;;;12.82;100.00;96280.22;1048577;28;20288;-70
2021/07/10 02:27:54;;;;;;;;;;;;;;;12.83;100.00;96279.94;1048600;28;19950;-70
2021/07/10 02:28:25;;;;;;;;;;;;;;;12.85;100.00;96279.66;1048561;28;19920;-70
2021/07/10 02:28:55;;;;;;;;;;;;;;;12.81;100.00;96276.72;1048707;28;20369;-70
2021/07/10 02:29:25;;;;;;;;;;;;;;;12.83;100.00;96277.25;1053098;28;19995;-70
2021/07/10 02:29:56;;;;;;;;;;;;;;;12.80;100.00;96275.13;1053207;28;19916;-70
2021/07/10 02:30:26;;;;;;;;;;;;;;;12.75;100.00;96284.00;1053049;28;19952;-70
2021/07/10 02:30:57;;;;;;;;;;;;;;;12.78;100.00;96273.78;1053099;28;19916;-70
2021/07/10 02:31:27;;;;;;;;;;;;;;;12.78;100.00;96279.16;1048493;28;19912;-70
2021/07/10 02:31:57;;;;;;;;;;;;;;;12.76;100.00;96276.75;1048562;28;20373;-70
2021/07/10 02:32:28;;;;;;;;;;;;;;;12.75;100.00;96281.31;1048622;28;19916;-70
2021/07/10 02:32:58;;;;;;;;;;;;;;;12.77;100.00;96281.03;1048479;28;19921;-71
2021/07/10 02:33:28;;;;;;;;;;;;;;;12.78;100.00;96277.28;1053002;28;19927;-70
2021/07/10 02:33:58;;;;;;;;;;;;;;;12.80;100.00;96275.13;1053072;28;19934;-70
2021/07/10 02:34:29;;;;;;;;;;;;;;;12.77;100.00;96270.31;1053031;28;20343;-70
2021/07/10 02:34:59;;;;;;;;;;;;;;;12.79;100.00;96280.75;1053113;28;19912;-70
2021/07/10 02:35:29;;;;;;;;;;;;;;;12.82;100.00;96281.00;1053100;28;19916;-70
2021/07/10 02:36:00;;;;;;;;;;;;;;;12.79;100.00;96283.44;1048522;28;20087;-70
2021/07/10 02:36:30;;;;;;;;;;;;;;;12.79;100.00;96284.22;1044369;28;19947;-70